Time;durP1;ratioP1;P1;durP2;ratioP2;P2;SDS_P1;SDS_P2;PMS_P1;PMS_P2;Temp;Humidity;BMP_temperature;BMP_pressure;BME280_temperature;BME280_humidity;BME280_pressure;Samples;Min_cycle;Max_cycle;Signal;HPM_P1;HPM_P2
2024/04/15 00:01:05;;;;;;;4.73;4.27;;;17.60;48.90;;;;;;5309794;26;20239;-67
2024/04/15 00:03:30;;;;;;;4.50;4.10;;;17.60;48.30;;;;;;5309390;26;20307;-67
2024/04/15 00:05:59;;;;;;;5.37;3.80;;;17.70;47.70;;;;;;5305129;26;20241;-67
2024/04/15 00:08:24;;;;;;;6.20;4.40;;;17.60;47.30;;;;;;5308528;27;20724;-67
2024/04/15 00:10:52;;;;;;;3.63;3.33;;;17.60;48.00;;;;;;5310390;26;20277;-68
2024/04/15 00:13:18;;;;;;;4.23;3.73;;;17.70;44.50;;;;;;5309195;27;20310;-67
2024/04/15 00:15:46;;;;;;;4.87;3.60;;;17.90;43.40;;;;;;5310081;26;20689;-67
2024/04/15 00:18:12;;;;;;;4.87;3.33;;;18.00;42.30;;;;;;5309247;26;20351;-67
2024/04/15 00:20:40;;;;;;;4.63;3.60;;;17.90;42.30;;;;;;5310119;26;20234;-67
2024/04/15 00:23:06;;;;;;;3.50;3.20;;;17.80;42.20;;;;;;5310029;26;20313;-67
2024/04/15 00:25:34;;;;;;;4.00;3.37;;;17.80;41.80;;;;;;5303525;26;20849;-68
2024/04/15 00:28:00;;;;;;;3.70;2.90;;;17.60;42.40;;;;;;5303026;27;20277;-67
2024/04/15 00:30:28;;;;;;;4.70;3.10;;;17.70;42.10;;;;;;5308108;27;20249;-67
2024/04/15 00:32:53;;;;;;;3.37;3.07;;;17.80;40.70;;;;;;5309732;27;20295;-67
2024/04/15 00:35:22;;;;;;;4.00;2.87;;;17.70;40.40;;;;;;5310532;26;20242;-67
2024/04/15 00:37:48;;;;;;;4.03;2.83;;;17.80;39.60;;;;;;5310772;26;20238;-67
2024/04/15 00:40:17;;;;;;;3.63;2.73;;;17.90;39.30;;;;;;5309946;26;20288;-67
2024/04/15 00:42:42;;;;;;;3.67;3.00;;;17.80;39.70;;;;;;5309127;27;20304;-68
2024/04/15 00:45:10;;;;;;;3.43;2.90;;;17.70;41.10;;;;;;5309756;26;20249;-67
2024/04/15 00:47:36;;;;;;;3.00;2.70;;;17.60;41.50;;;;;;5304462;26;20369;-67
2024/04/15 00:50:04;;;;;;;5.13;3.43;;;17.50;40.00;;;;;;5308530;26;20251;-67
2024/04/15 00:52:30;;;;;;;3.60;3.30;;;17.40;40.60;;;;;;5309477;26;20308;-69
2024/04/15 00:54:58;;;;;;;3.27;3.00;;;17.40;40.60;;;;;;5308977;26;20347;-67
2024/04/15 00:57:23;;;;;;;3.30;2.70;;;17.40;41.00;;;;;;5309312;26;20348;-67
2024/04/15 00:59:52;;;;;;;3.30;3.00;;;17.30;40.70;;;;;;5309140;26;20861;-67
2024/04/15 01:02:17;;;;;;;3.20;2.80;;;17.20;41.00;;;;;;5308984;27;20292;-67
2024/04/15 01:04:46;;;;;;;4.27;2.90;;;17.10;41.50;;;;;;5309417;26;20615;-67
2024/04/15 01:07:12;;;;;;;3.63;3.13;;;17.10;41.00;;;;;;5305535;26;20288;-67
2024/04/15 01:09:40;;;;;;;3.40;3.10;;;17.10;41.90;;;;;;5308960;26;20343;-67
2024/04/15 01:12:06;;;;;;;2.77;2.57;;;17.00;41.80;;;;;;5309314;26;20281;-67
2024/04/15 01:14:34;;;;;;;3.77;2.83;;;17.00;41.70;;;;;;5303241;26;20888;-67
2024/04/15 01:17:00;;;;;;;3.10;2.80;;;17.10;41.50;;;;;;5330602;26;20247;-67
2024/04/15 01:19:28;;;;;;;3.17;2.87;;;16.90;41.40;;;;;;5308796;26;20340;-68
2024/04/15 01:21:54;;;;;;;4.17;2.77;;;16.90;41.50;;;;;;5308958;27;20309;-67
2024/04/15 01:24:22;;;;;;;3.77;3.10;;;17.10;41.50;;;;;;5309893;26;20705;-68
2024/04/15 01:26:47;;;;;;;3.17;2.90;;;17.10;41.50;;;;;;5311296;26;20618;-67
2024/04/15 01:29:16;;;;;;;3.73;2.97;;;17.00;41.10;;;;;;5312440;26;20249;-67
2024/04/15 01:31:41;;;;;;;3.07;2.80;;;17.00;41.10;;;;;;5311834;26;20238;-68
2024/04/15 01:34:10;;;;;;;3.23;2.93;;;16.90;41.40;;;;;;5307388;26;20285;-67
2024/04/15 01:36:35;;;;;;;3.50;3.20;;;16.90;41.40;;;;;;5311565;26;20302;-67
2024/04/15 01:39:03;;;;;;;3.10;2.90;;;16.80;41.50;;;;;;5311897;26;20601;-67
2024/04/15 01:41:29;;;;;;;4.27;2.60;;;16.80;41.60;;;;;;5311525;27;20305;-67
2024/04/15 01:43:57;;;;;;;3.00;2.70;;;16.80;41.90;;;;;;5311912;26;20335;-67
2024/04/15 01:46:23;;;;;;;4.23;3.27;;;16.80;41.50;;;;;;5311451;26;20301;-67
2024/04/15 01:48:51;;;;;;;3.03;2.83;;;16.80;41.90;;;;;;5310496;27;20587;-68
2024/04/15 01:51:16;;;;;;;4.10;2.90;;;17.00;41.50;;;;;;5307374;26;20793;-68
2024/04/15 01:53:45;;;;;;;3.60;2.83;;;16.90;41.50;;;;;;5310809;27;20351;-67
2024/04/15 01:56:10;;;;;;;2.87;2.67;;;16.90;41.40;;;;;;5311198;26;20234;-67
2024/04/15 01:58:38;;;;;;;2.90;2.70;;;16.90;41.00;;;;;;5311288;26;20284;-67
2024/04/15 02:01:04;;;;;;;3.07;2.70;;;17.00;40.70;;;;;;5311909;27;20361;-67
2024/04/15 02:03:32;;;;;;;2.80;2.60;;;16.90;41.10;;;;;;5311656;26;20389;-67
2024/04/15 02:05:58;;;;;;;3.63;2.57;;;17.00;40.30;;;;;;5338475;26;20237;-67
2024/04/15 02:08:26;;;;;;;3.00;2.80;;;17.00;39.80;;;;;;5312060;26;20337;-68
2024/04/15 02:10:52;;;;;;;2.97;2.67;;;17.10;39.70;;;;;;5311925;27;20368;-67
2024/04/15 02:13:21;;;;;;;2.70;2.50;;;17.00;39.40;;;;;;5307897;26;20650;-67
2024/04/15 02:15:46;;;;;;;3.13;2.83;;;17.10;39.20;;;;;;5310443;27;20833;-67
2024/04/15 02:18:15;;;;;;;3.00;2.67;;;17.20;39.20;;;;;;5311510;26;20241;-67
2024/04/15 02:20:40;;;;;;;2.50;2.30;;;17.20;38.80;;;;;;5311497;27;20363;-67
2024/04/15 02:23:08;;;;;;;4.23;2.40;;;17.10;38.90;;;;;;5310926;27;20254;-67
2024/04/15 02:25:34;;;;;;;2.50;2.30;;;17.20;39.10;;;;;;5305652;26;20238;-67
2024/04/15 02:28:02;;;;;;;3.10;2.80;;;17.20;39.10;;;;;;5310859;27;20355;-67
2024/04/15 02:30:28;;;;;;;2.60;2.40;;;17.20;39.20;;;;;;5311375;26;20298;-67
2024/04/15 02:32:56;;;;;;;2.97;2.67;;;17.20;39.20;;;;;;5311273;26;20250;-67
2024/04/15 02:35:21;;;;;;;2.50;2.30;;;17.20;39.20;;;;;;5311221;27;20286;-67
2024/04/15 02:37:50;;;;;;;2.83;2.37;;;17.20;38.90;;;;;;5310109;26;20246;-67
2024/04/15 02:40:15;;;;;;;3.83;2.47;;;17.20;39.00;;;;;;5311074;26;20292;-68
2024/04/15 02:42:43;;;;;;;3.67;2.50;;;17.30;38.80;;;;;;5306789;26;20355;-67
2024/04/15 02:45:09;;;;;;;2.60;2.40;;;17.30;38.90;;;;;;5303698;27;20384;-67
2024/04/15 02:47:37;;;;;;;2.40;2.10;;;17.30;38.90;;;;;;5308841;27;20245;-67
2024/04/15 02:50:03;;;;;;;3.07;2.87;;;17.20;39.20;;;;;;5309738;26;20238;-69
2024/04/15 02:52:31;;;;;;;4.07;2.53;;;17.20;39.20;;;;;;5310731;26;20320;-67
2024/04/15 02:54:57;;;;;;;3.67;2.37;;;17.20;39.10;;;;;;5311220;26;20509;-67
2024/04/15 02:57:26;;;;;;;2.60;2.40;;;17.20;39.40;;;;;;5311174;27;20241;-67
2024/04/15 02:59:52;;;;;;;2.40;2.20;;;17.20;39.60;;;;;;5310784;26;20280;-68
2024/04/15 03:02:20;;;;;;;3.93;2.47;;;17.20;39.50;;;;;;5306870;27;20732;-67
2024/04/15 03:04:45;;;;;;;2.40;2.20;;;17.20;39.70;;;;;;5310683;27;21591;-67
2024/04/15 03:07:14;;;;;;;3.30;2.60;;;17.10;39.70;;;;;;5309280;27;20249;-67
2024/04/15 03:09:39;;;;;;;2.67;2.47;;;17.20;39.90;;;;;;5312024;26;20364;-67
2024/04/15 03:12:07;;;;;;;3.10;2.80;;;17.20;39.40;;;;;;5310424;26;20250;-67
2024/04/15 03:14:33;;;;;;;2.80;2.47;;;17.20;39.50;;;;;;5308497;26;20304;-67
2024/04/15 03:17:01;;;;;;;3.30;2.60;;;17.20;39.60;;;;;;5307690;26;20363;-67
2024/04/15 03:19:27;;;;;;;2.43;2.23;;;17.20;39.70;;;;;;5310748;26;20238;-67
2024/04/15 03:21:55;;;;;;;2.20;2.00;;;17.20;39.80;;;;;;5310268;26;20249;-67
2024/04/15 03:24:21;;;;;;;2.27;2.10;;;17.20;39.80;;;;;;5310517;26;20227;-67
2024/04/15 03:26:49;;;;;;;3.33;2.30;;;17.20;39.60;;;;;;5310768;26;20325;-67
2024/04/15 03:29:14;;;;;;;3.63;2.53;;;17.20;39.90;;;;;;5310602;26;20305;-67
2024/04/15 03:31:42;;;;;;;5.27;2.50;;;17.30;40.00;;;;;;5309867;26;20336;-67
2024/04/15 03:34:08;;;;;;;2.73;2.00;;;17.30;39.90;;;;;;5297078;27;21433;-67
2024/04/15 03:36:36;;;;;;;2.70;2.50;;;17.30;39.80;;;;;;5305146;26;20262;-67
2024/04/15 03:39:05;;;;;;;3.20;2.40;;;17.30;40.00;;;;;;5310432;27;20422;-67
2024/04/15 03:41:33;;;;;;;2.90;2.60;;;17.30;39.70;;;;;;5311004;27;20702;-67
2024/04/15 03:43:59;;;;;;;2.83;2.40;;;17.30;39.80;;;;;;5310078;27;20238;-67
2024/04/15 03:46:27;;;;;;;3.00;2.70;;;17.40;39.80;;;;;;5310041;26;20278;-67
2024/04/15 03:48:52;;;;;;;3.60;3.27;;;17.40;39.70;;;;;;5308332;27;20277;-67
2024/04/15 03:51:20;;;;;;;3.60;2.50;;;17.50;39.80;;;;;;5310722;26;20336;-67
2024/04/15 03:53:46;;;;;;;2.50;2.30;;;17.50;39.70;;;;;;5309614;27;20348;-68
2024/04/15 03:56:14;;;;;;;3.53;3.20;;;17.40;39.80;;;;;;5306896;27;20261;-67
2024/04/15 03:58:40;;;;;;;4.30;2.77;;;17.40;40.30;;;;;;5310379;26;20359;-67
2024/04/15 04:01:08;;;;;;;3.00;2.73;;;17.50;40.10;;;;;;5310575;26;20246;-67
2024/04/15 04:03:34;;;;;;;2.63;2.33;;;17.40;40.20;;;;;;5310123;26;20364;-67
2024/04/15 04:06:02;;;;;;;2.93;2.73;;;17.40;40.80;;;;;;5310410;27;20669;-68
2024/04/15 04:08:27;;;;;;;4.17;2.60;;;17.30;40.90;;;;;;5309436;27;20686;-67
2024/04/15 04:10:56;;;;;;;6.97;2.63;;;17.30;41.00;;;;;;5310548;26;20357;-68
2024/04/15 04:13:21;;;;;;;2.90;2.67;;;17.30;41.20;;;;;;5305448;26;20261;-67
2024/04/15 04:15:50;;;;;;;4.20;2.47;;;17.30;41.70;;;;;;5309249;26;20305;-67
2024/04/15 04:18:15;;;;;;;2.73;2.53;;;17.40;41.70;;;;;;5308622;26;20778;-67
2024/04/15 04:20:43;;;;;;;3.53;2.70;;;17.30;41.90;;;;;;5309834;26;20254;-67
2024/04/15 04:23:09;;;;;;;4.90;2.70;;;17.30;41.90;;;;;;5303168;27;20305;-67
2024/04/15 04:25:37;;;;;;;3.70;2.90;;;17.30;42.40;;;;;;5310370;26;20320;-67
2024/04/15 04:28:03;;;;;;;5.03;2.80;;;17.30;42.60;;;;;;5310037;26;20244;-67
2024/04/15 04:30:31;;;;;;;3.20;3.00;;;17.20;42.80;;;;;;5309952;26;20354;-67
2024/04/15 04:32:57;;;;;;;3.97;2.93;;;17.20;42.80;;;;;;5336794;26;20240;-67
2024/04/15 04:35:25;;;;;;;3.17;2.60;;;17.20;43.00;;;;;;5305602;26;20342;-68
2024/04/15 04:37:50;;;;;;;3.10;2.67;;;17.10;43.50;;;;;;5308547;26;20299;-67
2024/04/15 04:40:19;;;;;;;2.73;2.47;;;17.10;43.80;;;;;;5309131;26;20860;-67
2024/04/15 04:42:44;;;;;;;2.53;2.33;;;17.10;43.90;;;;;;5336001;26;20389;-68
2024/04/15 04:45:13;;;;;;;4.10;3.00;;;17.20;43.90;;;;;;5309161;26;20238;-67
2024/04/15 04:47:38;;;;;;;4.77;3.00;;;17.10;44.40;;;;;;5308876;26;20297;-67
2024/04/15 04:50:06;;;;;;;6.37;3.20;;;17.00;44.60;;;;;;5309083;27;20561;-67
2024/04/15 04:52:32;;;;;;;3.50;2.90;;;17.00;44.70;;;;;;5300819;26;20312;-67
2024/04/15 04:55:00;;;;;;;3.27;2.90;;;17.00;44.90;;;;;;5308146;26;20717;-68
2024/04/15 04:57:26;;;;;;;5.57;3.27;;;16.80;45.90;;;;;;5308315;26;20695;-67
2024/04/15 04:59:54;;;;;;;5.80;2.97;;;16.70;47.70;;;;;;5310437;26;20249;-67
2024/04/15 05:02:21;;;;;;;3.57;2.93;;;16.70;48.30;;;;;;5312451;26;20351;-68
2024/04/15 05:04:50;;;;;;;3.50;3.20;;;16.60;49.50;;;;;;5312126;26;20861;-67
2024/04/15 05:07:16;;;;;;;7.50;3.13;;;16.60;50.40;;;;;;5312126;26;20310;-67
2024/04/15 05:09:44;;;;;;;3.47;3.07;;;16.70;50.30;;;;;;5305046;26;21129;-67
2024/04/15 05:12:09;;;;;;;4.30;3.00;;;16.60;50.90;;;;;;5307305;27;20237;-67
2024/04/15 05:14:38;;;;;;;6.00;3.50;;;16.50;50.80;;;;;;5311800;26;20239;-68
2024/04/15 05:17:04;;;;;;;5.87;3.70;;;16.40;52.40;;;;;;5303845;26;20268;-67
2024/04/15 05:19:32;;;;;;;3.83;3.47;;;16.40;53.60;;;;;;5310901;26;20288;-67
2024/04/15 05:21:58;;;;;;;4.90;3.67;;;16.40;54.70;;;;;;5311480;27;20260;-67
2024/04/15 05:24:26;;;;;;;4.00;3.57;;;16.30;54.60;;;;;;5311449;26;20242;-67
2024/04/15 05:26:52;;;;;;;4.03;3.67;;;16.20;55.50;;;;;;5311900;26;20253;-68
2024/04/15 05:29:20;;;;;;;4.60;4.20;;;16.20;56.40;;;;;;5311331;26;20237;-67
2024/04/15 05:31:46;;;;;;;4.57;3.80;;;16.20;56.60;;;;;;5309408;27;20792;-67
2024/04/15 05:34:14;;;;;;;4.43;3.80;;;16.20;55.90;;;;;;5307028;26;20351;-67
2024/04/15 05:36:39;;;;;;;4.47;4.00;;;16.20;55.50;;;;;;5312175;27;20568;-67
2024/04/15 05:39:08;;;;;;;5.03;3.57;;;16.20;55.10;;;;;;5311440;27;20276;-67
2024/04/15 05:41:33;;;;;;;4.00;3.63;;;16.30;55.20;;;;;;5312158;26;20376;-68
2024/04/15 05:44:01;;;;;;;5.33;4.07;;;16.30;54.90;;;;;;5312415;26;20251;-67
2024/04/15 05:46:27;;;;;;;4.70;3.73;;;16.30;55.20;;;;;;5311736;26;20300;-67
2024/04/15 05:48:55;;;;;;;6.33;4.13;;;16.30;55.50;;;;;;5312946;27;20234;-67
2024/04/15 05:51:21;;;;;;;6.87;3.93;;;16.30;55.70;;;;;;5306370;26;20318;-67
2024/04/15 05:53:49;;;;;;;4.70;4.13;;;16.20;55.70;;;;;;5310841;26;20718;-67
2024/04/15 05:56:15;;;;;;;7.27;4.40;;;16.20;56.60;;;;;;5312068;26;20335;-67
2024/04/15 05:58:43;;;;;;;4.53;4.10;;;16.20;56.90;;;;;;5339232;26;20241;-68
2024/04/15 06:01:09;;;;;;;4.77;3.70;;;16.10;57.40;;;;;;5298389;27;20291;-67
2024/04/15 06:03:37;;;;;;;4.47;4.03;;;16.20;57.30;;;;;;5307312;27;20257;-67
2024/04/15 06:06:02;;;;;;;4.90;3.80;;;16.00;58.10;;;;;;5307843;27;20315;-67
2024/04/15 06:08:31;;;;;;;4.10;3.63;;;16.00;58.80;;;;;;5312109;26;20343;-68
2024/04/15 06:10:56;;;;;;;5.10;3.90;;;16.00;58.10;;;;;;5309778;27;20312;-67
2024/04/15 06:13:24;;;;;;;4.33;4.00;;;15.90;58.70;;;;;;5311120;27;20359;-67
2024/04/15 06:15:50;;;;;;;3.97;3.60;;;16.10;57.60;;;;;;5311563;27;20776;-67
2024/04/15 06:18:18;;;;;;;4.53;4.03;;;16.20;58.90;;;;;;5306520;27;20363;-68
2024/04/15 06:20:44;;;;;;;5.17;3.80;;;16.10;58.90;;;;;;5310671;26;20245;-67
2024/04/15 06:23:12;;;;;;;5.10;3.90;;;16.20;59.70;;;;;;5310888;26;20246;-68
2024/04/15 06:25:38;;;;;;;4.20;3.80;;;16.20;60.20;;;;;;5311195;26;20290;-68
2024/04/15 06:28:07;;;;;;;4.57;3.70;;;16.30;60.60;;;;;;5311842;27;20257;-68
2024/04/15 06:30:32;;;;;;;4.77;3.67;;;16.30;59.90;;;;;;5307237;27;20719;-68
2024/04/15 06:33:01;;;;;;;4.53;4.07;;;16.30;61.30;;;;;;5310648;26;20295;-68
2024/04/15 06:35:26;;;;;;;4.77;4.30;;;16.30;61.00;;;;;;5311396;26;20351;-68
2024/04/15 06:37:56;;;;;;;4.67;4.27;;;16.40;61.30;;;;;;5333509;26;20740;-67
2024/04/15 06:40:22;;;;;;;5.33;4.13;;;16.40;61.60;;;;;;5313982;27;20636;-68
2024/04/15 06:45:26;;;;;;;4.33;3.93;;;16.40;61.00;;;;;;5426099;21;20280;-67
2024/04/15 06:47:53;;;;;;;5.80;4.00;;;16.50;61.10;;;;;;5384786;26;20260;-68
2024/04/15 06:53:05;;;;;;;3.97;3.67;;;16.60;60.00;;;;;;5948003;21;20343;-65
2024/04/15 06:55:31;;;;;;;4.80;3.60;;;16.50;59.90;;;;;;5273281;27;20290;-65
2024/04/15 06:57:59;;;;;;;4.00;3.10;;;16.40;59.50;;;;;;5290607;27;20292;-65
2024/04/15 07:00:25;;;;;;;4.30;3.53;;;16.60;58.00;;;;;;5276828;27;20440;-65
2024/04/15 07:02:53;;;;;;;4.17;3.47;;;16.40;58.90;;;;;;5297101;26;20270;-65
2024/04/15 07:05:19;;;;;;;4.60;3.63;;;16.40;57.90;;;;;;5296691;27;20297;-68
2024/04/15 07:07:47;;;;;;;3.57;3.27;;;16.30;58.00;;;;;;5263947;27;20327;-68
2024/04/15 07:10:12;;;;;;;3.60;3.13;;;16.30;59.00;;;;;;5269108;27;20319;-66
2024/04/15 07:12:41;;;;;;;3.97;3.63;;;16.30;58.60;;;;;;5271688;27;20340;-66
2024/04/15 07:15:06;;;;;;;10.83;3.53;;;16.30;57.80;;;;;;5285185;27;20260;-67
2024/04/15 07:17:36;;;;;;;3.63;3.33;;;16.30;57.60;;;;;;5272113;27;20351;-67
2024/04/15 07:20:02;;;;;;;3.80;3.37;;;16.30;57.70;;;;;;5294872;27;20245;-67
2024/04/15 07:22:30;;;;;;;4.00;3.70;;;16.40;58.20;;;;;;5277413;27;20295;-66
2024/04/15 07:25:01;;;;;;;4.53;3.57;;;16.50;58.00;;;;;;5292532;27;20336;-66
2024/04/15 07:27:30;;;;;;;3.77;3.43;;;16.50;58.00;;;;;;5272360;27;20243;-67
2024/04/15 07:29:56;;;;;;;4.13;3.07;;;16.50;57.70;;;;;;5281762;27;20250;-65
2024/04/15 07:32:24;;;;;;;4.43;3.23;;;16.60;56.80;;;;;;5292130;26;20240;-67
2024/04/15 07:34:50;;;;;;;3.60;3.30;;;16.70;57.80;;;;;;5301966;27;20261;-65
2024/04/15 07:37:18;;;;;;;3.90;3.60;;;16.70;57.80;;;;;;5284468;27;20249;-67
2024/04/15 07:39:44;;;;;;;5.13;3.30;;;16.70;57.30;;;;;;5293596;27;20313;-67
2024/04/15 07:42:12;;;;;;;3.77;3.30;;;16.70;57.60;;;;;;5283384;27;20337;-65
2024/04/15 07:44:37;;;;;;;4.07;3.53;;;16.60;57.20;;;;;;5288077;27;20282;-67
2024/04/15 07:47:06;;;;;;;4.40;3.30;;;16.60;56.80;;;;;;5269021;27;20304;-66
2024/04/15 07:49:34;;;;;;;3.50;3.17;;;16.70;57.10;;;;;;5275440;27;20290;-68
2024/04/15 07:52:00;;;;;;;3.90;3.50;;;16.70;57.60;;;;;;5289138;27;20243;-64
2024/04/15 07:54:28;;;;;;;3.43;3.13;;;16.70;56.50;;;;;;5267784;27;20775;-67
2024/04/15 07:56:54;;;;;;;7.00;4.50;;;16.70;56.70;;;;;;5279490;27;20768;-66
2024/04/15 07:59:22;;;;;;;5.03;3.60;;;16.70;56.60;;;;;;5271842;27;20238;-67
2024/04/15 08:01:47;;;;;;;5.17;3.53;;;16.70;57.40;;;;;;5297273;26;20386;-66
2024/04/15 08:04:16;;;;;;;4.67;3.80;;;16.60;58.70;;;;;;5278205;27;20328;-64
2024/04/15 08:06:41;;;;;;;5.03;4.03;;;16.80;59.50;;;;;;5250697;27;20775;-66
2024/04/15 08:09:09;;;;;;;4.37;3.67;;;16.80;59.60;;;;;;5234399;27;20361;-66
2024/04/15 08:11:35;;;;;;;3.97;3.63;;;16.70;59.40;;;;;;5258823;26;20254;-67
2024/04/15 08:14:03;;;;;;;5.23;4.00;;;16.60;59.40;;;;;;5264334;27;20344;-66
2024/04/15 08:16:29;;;;;;;4.50;3.90;;;16.60;60.70;;;;;;5276941;27;20319;-66
2024/04/15 08:18:57;;;;;;;4.67;3.73;;;16.60;61.00;;;;;;5278649;27;20239;-66
2024/04/15 08:21:23;;;;;;;4.93;3.80;;;16.70;60.00;;;;;;5248409;27;20268;-66
2024/04/15 08:23:51;;;;;;;5.37;4.07;;;16.70;58.30;;;;;;5282824;27;20293;-66
2024/04/15 08:26:16;;;;;;;5.73;3.50;;;16.70;58.50;;;;;;5231153;27;20725;-67
2024/04/15 08:28:45;;;;;;;4.40;3.60;;;16.70;59.10;;;;;;5285685;27;20341;-66
2024/04/15 08:31:10;;;;;;;4.83;3.30;;;16.80;59.90;;;;;;5281195;27;20246;-67
2024/04/15 08:33:38;;;;;;;9.13;4.30;;;16.70;59.40;;;;;;5276676;26;20329;-67
2024/04/15 08:36:05;;;;;;;5.13;4.30;;;16.70;59.40;;;;;;5277112;27;20296;-66
2024/04/15 08:38:33;;;;;;;5.13;3.50;;;16.70;59.40;;;;;;5272211;27;20279;-66
2024/04/15 08:41:00;;;;;;;5.73;3.97;;;16.60;60.00;;;;;;5283897;27;20241;-67
2024/04/15 08:43:28;;;;;;;5.77;3.80;;;16.50;59.90;;;;;;5294682;26;20246;-66
2024/04/15 08:45:54;;;;;;;5.20;4.50;;;16.40;60.60;;;;;;5267408;27;20246;-66
2024/04/15 08:48:22;;;;;;;4.87;4.10;;;16.50;60.00;;;;;;5274799;27;20359;-67
2024/04/15 08:50:47;;;;;;;4.87;4.03;;;16.50;60.00;;;;;;5258107;27;20358;-65
2024/04/15 08:53:16;;;;;;;6.00;4.57;;;16.40;61.70;;;;;;5286789;26;20643;-67
2024/04/15 08:55:41;;;;;;;4.67;4.23;;;16.50;62.40;;;;;;5288729;27;20285;-67
2024/04/15 08:58:10;;;;;;;6.83;4.27;;;16.40;62.20;;;;;;5261413;27;20585;-67
2024/04/15 09:00:36;;;;;;;4.17;3.83;;;16.30;63.80;;;;;;5273048;27;20348;-67
2024/04/15 09:03:04;;;;;;;6.00;4.83;;;16.20;61.40;;;;;;5279703;27;20272;-66
2024/04/15 09:05:29;;;;;;;6.77;4.57;;;16.20;64.30;;;;;;5289790;27;20326;-66
2024/04/15 09:07:58;;;;;;;5.63;5.13;;;16.20;64.70;;;;;;5285658;27;20281;-67
2024/04/15 09:10:23;;;;;;;8.20;6.40;;;16.20;64.60;;;;;;5279771;27;20238;-67
2024/04/15 09:12:56;;;;;;;5.83;5.23;;;16.20;66.10;;;;;;5267036;27;20298;-66
2024/04/15 09:15:21;;;;;;;16.23;11.40;;;16.20;65.20;;;;;;5293816;27;20253;-67
2024/04/15 09:17:50;;;;;;;8.23;7.23;;;16.20;65.70;;;;;;5292120;27;20663;-67
2024/04/15 09:20:16;;;;;;;18.67;16.77;;;16.20;66.40;;;;;;5252510;27;20301;-68
2024/04/15 09:22:45;;;;;;;14.03;12.57;;;16.10;66.40;;;;;;5267984;27;20365;-68
2024/04/15 09:25:10;;;;;;;9.60;6.77;;;16.10;67.90;;;;;;5287897;27;20248;-68
2024/04/15 09:27:38;;;;;;;8.57;7.73;;;16.10;67.20;;;;;;5234682;27;20692;-67
2024/04/15 09:30:04;;;;;;;9.30;8.40;;;16.20;66.30;;;;;;5256185;27;20364;-68
2024/04/15 09:32:32;;;;;;;6.97;5.27;;;16.20;67.50;;;;;;5257364;27;20249;-67
2024/04/15 09:34:58;;;;;;;6.33;4.80;;;16.20;66.80;;;;;;5276479;27;20388;-68
2024/04/15 09:37:26;;;;;;;5.10;4.53;;;16.10;67.50;;;;;;5267840;27;20342;-68
2024/04/15 09:39:52;;;;;;;8.13;5.73;;;16.10;68.00;;;;;;5275870;27;20246;-68
2024/04/15 09:42:20;;;;;;;7.10;6.40;;;16.10;69.20;;;;;;5289927;27;20296;-68
2024/04/15 09:44:46;;;;;;;8.03;6.80;;;16.00;68.00;;;;;;5278267;27;20336;-69
2024/04/15 09:47:15;;;;;;;7.57;6.23;;;16.00;67.50;;;;;;5292728;27;20588;-68
2024/04/15 09:49:40;;;;;;;7.87;6.07;;;15.90;69.20;;;;;;5284340;27;20261;-68
2024/04/15 09:52:09;;;;;;;9.17;7.17;;;16.00;68.20;;;;;;5257767;27;20598;-68
2024/04/15 09:54:35;;;;;;;7.63;5.50;;;15.90;70.00;;;;;;5249651;27;20641;-67
2024/04/15 09:57:03;;;;;;;9.13;8.23;;;15.90;70.80;;;;;;5257655;27;20261;-68
2024/04/15 09:59:29;;;;;;;10.20;6.40;;;15.90;70.60;;;;;;5259104;27;20296;-67
2024/04/15 10:01:57;;;;;;;8.00;6.30;;;16.00;69.80;;;;;;5265764;27;20259;-67
2024/04/15 10:04:23;;;;;;;8.73;7.13;;;16.00;71.50;;;;;;5267244;27;20581;-67
2024/04/15 10:06:51;;;;;;;10.33;6.80;;;16.00;71.80;;;;;;5293137;27;20370;-67
2024/04/15 10:09:17;;;;;;;6.53;5.93;;;15.90;72.50;;;;;;5247438;27;20254;-67
2024/04/15 10:11:45;;;;;;;5.63;4.93;;;15.80;73.10;;;;;;5276101;27;21521;-67
2024/04/15 10:14:10;;;;;;;6.30;5.33;;;15.90;73.20;;;;;;5297328;27;20356;-67
2024/04/15 10:16:39;;;;;;;5.87;5.13;;;15.70;74.10;;;;;;5293331;27;20264;-67
2024/04/15 10:19:04;;;;;;;6.67;4.43;;;15.70;73.40;;;;;;5275672;27;20238;-68
2024/04/15 10:21:33;;;;;;;8.03;4.03;;;15.80;72.60;;;;;;5275359;27;20250;-67
2024/04/15 10:23:58;;;;;;;6.07;3.87;;;15.70;71.20;;;;;;5291203;27;20306;-67
2024/04/15 10:26:27;;;;;;;8.00;3.90;;;15.60;70.90;;;;;;5293271;27;20339;-67
2024/04/15 10:28:52;;;;;;;4.47;3.80;;;15.50;71.60;;;;;;5276612;27;20250;-67
2024/04/15 10:31:21;;;;;;;4.53;3.80;;;15.40;69.90;;;;;;5297097;26;20363;-67
2024/04/15 10:33:46;;;;;;;5.20;4.00;;;15.40;67.80;;;;;;5282317;27;20314;-71
2024/04/15 10:36:14;;;;;;;3.57;3.27;;;15.40;68.60;;;;;;5274037;27;20258;-67
2024/04/15 10:38:40;;;;;;;4.83;4.33;;;15.30;68.50;;;;;;5266427;27;20245;-68
2024/04/15 10:41:08;;;;;;;4.03;3.40;;;15.30;68.20;;;;;;5279683;27;20586;-67
2024/04/15 10:43:34;;;;;;;3.37;3.07;;;15.20;66.80;;;;;;5290443;27;20385;-67
2024/04/15 10:46:02;;;;;;;4.80;3.43;;;15.00;67.70;;;;;;5294239;27;20767;-67
2024/04/15 10:48:28;;;;;;;4.33;3.60;;;15.10;68.60;;;;;;5275947;27;20368;-67
2024/04/15 10:50:56;;;;;;;5.63;3.70;;;15.10;68.40;;;;;;5283609;27;20249;-67
2024/04/15 10:53:24;;;;;;;7.40;4.30;;;15.00;68.70;;;;;;5274779;27;20252;-67
2024/04/15 10:55:50;;;;;;;4.70;4.27;;;15.00;68.90;;;;;;5280909;27;20340;-67
2024/04/15 10:58:18;;;;;;;4.63;4.10;;;14.90;68.80;;;;;;5284050;27;20253;-68
2024/04/15 11:00:44;;;;;;;4.77;4.33;;;15.00;68.40;;;;;;5277063;27;20313;-67
2024/04/15 11:03:12;;;;;;;7.27;6.57;;;15.00;69.10;;;;;;5280867;27;20247;-67
2024/04/15 11:05:38;;;;;;;6.53;5.13;;;14.80;69.40;;;;;;5295458;26;20310;-67
2024/04/15 11:08:06;;;;;;;4.63;4.23;;;14.70;68.40;;;;;;5291375;27;20244;-67
2024/04/15 11:10:32;;;;;;;6.03;3.80;;;14.70;68.90;;;;;;5277861;27;20300;-72
2024/04/15 11:13:00;;;;;;;7.63;5.47;;;14.80;68.00;;;;;;5290555;26;20711;-67
2024/04/15 11:15:26;;;;;;;3.73;3.33;;;15.00;69.00;;;;;;5268466;27;20907;-67
2024/04/15 11:17:54;;;;;;;4.60;3.00;;;14.90;66.00;;;;;;5254050;27;20259;-66
2024/04/15 11:20:20;;;;;;;3.40;3.03;;;14.90;66.40;;;;;;5281181;27;21196;-66
2024/04/15 11:22:48;;;;;;;4.67;2.87;;;14.90;66.00;;;;;;5288622;26;20257;-66
2024/04/15 11:25:13;;;;;;;3.80;3.40;;;14.90;66.30;;;;;;5282344;27;20249;-66
2024/04/15 11:27:42;;;;;;;4.00;3.30;;;14.90;67.10;;;;;;5296738;27;20246;-65
2024/04/15 11:30:07;;;;;;;5.13;3.30;;;14.90;64.70;;;;;;5294323;27;20246;-66
2024/04/15 11:32:36;;;;;;;3.83;3.40;;;14.90;64.20;;;;;;5299975;26;20346;-65
2024/04/15 11:35:02;;;;;;;4.67;3.73;;;14.90;65.10;;;;;;5306319;27;20310;-66
2024/04/15 11:37:30;;;;;;;3.50;3.20;;;14.80;65.00;;;;;;5302554;27;20242;-66
2024/04/15 11:39:55;;;;;;;5.30;3.67;;;14.70;66.40;;;;;;5300511;27;20348;-66
2024/04/15 11:42:24;;;;;;;7.40;3.37;;;14.70;65.00;;;;;;5291324;27;20677;-66
2024/04/15 11:44:49;;;;;;;6.33;3.50;;;14.90;64.30;;;;;;5279933;27;20393;-67
2024/04/15 11:47:17;;;;;;;7.37;3.80;;;14.80;65.00;;;;;;5285940;27;20513;-67
2024/04/15 11:49:43;;;;;;;4.27;3.20;;;14.90;64.10;;;;;;5287919;27;20385;-67
2024/04/15 11:52:11;;;;;;;4.60;3.50;;;14.70;65.60;;;;;;5281906;27;20251;-68
2024/04/15 11:54:37;;;;;;;5.40;3.53;;;14.70;65.80;;;;;;5295923;27;20357;-67
2024/04/15 11:57:05;;;;;;;4.13;3.30;;;14.80;66.00;;;;;;5276687;27;20253;-68
2024/04/15 11:59:30;;;;;;;5.13;3.40;;;14.90;65.80;;;;;;5262685;27;20340;-67
2024/04/15 12:01:59;;;;;;;5.57;4.23;;;14.70;65.00;;;;;;5271205;27;20259;-68
2024/04/15 12:04:24;;;;;;;5.60;4.13;;;14.70;67.70;;;;;;5284956;27;20365;-67
2024/04/15 12:06:53;;;;;;;4.00;3.40;;;14.70;69.30;;;;;;5254128;27;20334;-67
2024/04/15 12:09:18;;;;;;;4.80;4.17;;;14.80;68.40;;;;;;5296367;27;20246;-67
2024/04/15 12:11:46;;;;;;;4.50;4.10;;;14.80;69.00;;;;;;5262674;27;20706;-68
2024/04/15 12:14:12;;;;;;;4.17;3.47;;;14.80;69.80;;;;;;5289749;27;20348;-67
2024/04/15 12:16:40;;;;;;;3.97;3.67;;;14.80;69.20;;;;;;5280614;27;20249;-68
2024/04/15 12:19:06;;;;;;;4.90;4.40;;;14.80;70.00;;;;;;5275366;27;20347;-67
2024/04/15 12:21:34;;;;;;;12.63;7.23;;;14.80;69.80;;;;;;5272024;27;20269;-68
2024/04/15 12:24:00;;;;;;;6.00;4.87;;;14.80;70.50;;;;;;5273465;27;20314;-67
2024/04/15 12:26:28;;;;;;;4.77;3.90;;;15.00;70.80;;;;;;5278400;27;20836;-66
2024/04/15 12:28:53;;;;;;;4.27;3.73;;;15.20;70.90;;;;;;5274681;27;20378;-67
2024/04/15 12:31:22;;;;;;;4.93;4.17;;;15.30;70.80;;;;;;5287214;26;20250;-67
2024/04/15 12:33:47;;;;;;;6.00;5.40;;;15.50;69.40;;;;;;5279729;27;20632;-67
2024/04/15 12:36:16;;;;;;;5.87;3.70;;;15.80;70.70;;;;;;5279640;27;20245;-67
2024/04/15 12:38:41;;;;;;;4.20;3.70;;;15.90;69.60;;;;;;5282702;27;20608;-65
2024/04/15 12:41:09;;;;;;;4.30;3.80;;;15.70;67.90;;;;;;5275826;27;20349;-66
2024/04/15 12:43:35;;;;;;;6.03;4.57;;;15.50;68.50;;;;;;5275221;27;20830;-66
2024/04/15 12:46:03;;;;;;;3.90;3.60;;;15.50;67.60;;;;;;5255252;27;20278;-67
2024/04/15 12:48:29;;;;;;;4.50;3.43;;;15.50;68.20;;;;;;5281539;26;20311;-67